MMCU/CUU METAR and TAF weather

Enter ICAO airport designator
Station Type Date Time Source
MMCU METAR 2022/06/26 02:40 UTC NOAA

MMCU 260240Z 00000KT 10SM FEW030 31/08 A3004 RMK SLP047 52007 910 8/100 MDT CU ISOL CI


Station Type Date Time Source
MMCU Decoded METAR 2022/06/26 02:40 UTC NOAA

Chihuahua International Airport, Mexico (MMCU) 28-42N 105-58W
Jun 25, 2022 - 10:40 PM EDT / 2022.06.26 0240 UTC
Wind: Calm:0
Visibility: 10 mile(s):0
Sky conditions: mostly clear
Temperature: 87 F (31 C)
Dew Point: 46 F (8 C)
Relative Humidity: 23%
Pressure (altimeter): 30.04 in. Hg (1017 hPa)
Pressure tendency: 0.02 inches (0.7 hPa) higher than three hours ago
ob: MMCU 260240Z 00000KT 10SM FEW030 31/08 A3004 RMK SLP047 52007 910 8/100 MDT CU ISOL CI
cycle: 2

Station Type Date Time Source
MMCU TAF 2022/06/26 06:27 UTC NOAA

TAF MMCU 260219Z 2606/2706 06005KT P6SM SCT030
FM261800 03010KT P6SM SCT030 SCT250
FM270500 04005KT P6SM SKC

Example: see airport list